createdAt,value
2018-07-11T00:02:02.966Z,17.10
2018-07-11T00:04:30.644Z,17.60
2018-07-11T00:06:58.248Z,17.20
2018-07-11T00:09:25.847Z,17.80
2018-07-11T00:11:53.436Z,16.87
2018-07-11T00:14:21.012Z,18.87
2018-07-11T00:16:54.322Z,16.97
2018-07-11T00:19:21.973Z,16.47
2018-07-11T00:21:49.593Z,15.20
2018-07-11T00:24:17.180Z,16.30
2018-07-11T00:26:44.801Z,15.67
2018-07-11T00:29:12.469Z,15.57
2018-07-11T00:31:40.093Z,17.30
2018-07-11T00:34:07.710Z,18.70
2018-07-11T00:36:35.325Z,17.53
2018-07-11T00:39:03.646Z,15.97
2018-07-11T00:41:31.265Z,16.80
2018-07-11T00:43:58.997Z,16.03
2018-07-11T00:46:26.617Z,14.87
2018-07-11T00:48:54.281Z,17.30
2018-07-11T00:51:21.936Z,17.20
2018-07-11T00:53:49.613Z,17.70
2018-07-11T00:56:17.253Z,17.13
2018-07-11T00:59:50.364Z,17.93
2018-07-11T01:02:18.008Z,16.57
2018-07-11T01:04:45.656Z,16.00
2018-07-11T01:07:13.281Z,17.00
2018-07-11T01:09:44.030Z,17.33
2018-07-11T01:12:11.689Z,17.67
2018-07-11T01:14:39.254Z,18.33
2018-07-11T01:17:12.254Z,17.00
2018-07-11T01:19:39.897Z,18.10
2018-07-11T01:22:07.502Z,18.17
2018-07-11T01:24:35.029Z,17.70
2018-07-11T01:27:02.660Z,17.57
2018-07-11T01:29:30.189Z,19.27
2018-07-11T01:31:57.757Z,17.60
2018-07-11T01:34:25.286Z,18.27
2018-07-11T01:36:52.839Z,17.33
2018-07-11T01:39:20.501Z,19.80
2018-07-11T01:41:49.247Z,17.43
2018-07-11T01:44:16.881Z,17.20
2018-07-11T01:46:50.878Z,18.10
2018-07-11T01:49:18.551Z,18.60
2018-07-11T01:51:57.546Z,19.70
2018-07-11T01:54:25.775Z,20.13
2018-07-11T01:56:53.372Z,23.47
2018-07-11T01:59:21.376Z,21.83
2018-07-11T02:01:48.958Z,21.40
2018-07-11T02:04:16.602Z,22.13
2018-07-11T02:06:44.247Z,19.37
2018-07-11T02:09:12.093Z,18.67
2018-07-11T02:11:39.674Z,20.00
2018-07-11T02:14:07.370Z,19.33
2018-07-11T02:16:35.700Z,18.80
2018-07-11T02:19:03.332Z,17.47
2018-07-11T02:21:30.958Z,17.60
2018-07-11T02:24:02.304Z,17.03
2018-07-11T02:26:29.940Z,15.40
2018-07-11T02:28:57.706Z,15.30
2018-07-11T02:31:25.363Z,16.60
2018-07-11T02:33:52.964Z,16.23
2018-07-11T02:36:20.591Z,15.07
2018-07-11T02:38:48.149Z,13.80
2018-07-11T02:41:15.694Z,13.97
2018-07-11T02:43:43.427Z,13.43
2018-07-11T02:46:11.033Z,15.30
2018-07-11T02:48:38.647Z,13.53
2018-07-11T02:51:06.272Z,16.20
2018-07-11T02:53:34.297Z,14.83
2018-07-11T02:56:01.928Z,12.80
2018-07-11T02:58:29.496Z,14.00
2018-07-11T03:00:57.087Z,13.33
2018-07-11T03:03:24.652Z,13.20
2018-07-11T03:05:52.217Z,14.67
2018-07-11T03:08:19.817Z,14.13
2018-07-11T03:10:47.370Z,14.00
2018-07-11T03:13:19.115Z,13.70
2018-07-11T03:15:46.690Z,12.33
2018-07-11T03:18:14.283Z,15.00
2018-07-11T03:20:41.921Z,13.07
2018-07-11T03:23:10.745Z,13.13
2018-07-11T03:25:38.310Z,13.80
2018-07-11T03:28:05.892Z,13.80
2018-07-11T03:30:33.532Z,13.83
2018-07-11T03:33:01.145Z,13.60
2018-07-11T03:35:28.717Z,15.20
2018-07-11T03:37:56.328Z,12.87
2018-07-11T03:40:23.933Z,13.70
2018-07-11T03:42:51.566Z,14.33
2018-07-11T03:45:19.142Z,13.97
2018-07-11T03:47:46.707Z,13.57
2018-07-11T03:50:14.267Z,12.47
2018-07-11T03:52:41.834Z,13.63
2018-07-11T03:55:09.396Z,13.50
2018-07-11T03:57:36.935Z,13.10
2018-07-11T04:00:04.551Z,13.90
2018-07-11T04:02:32.437Z,14.50
2018-07-11T04:04:59.955Z,12.97
2018-07-11T04:07:27.491Z,13.10
2018-07-11T04:09:55.048Z,11.90
2018-07-11T04:12:22.636Z,13.50
2018-07-11T04:14:50.177Z,13.03
2018-07-11T04:17:17.692Z,12.27
2018-07-11T04:19:45.238Z,9.90
2018-07-11T04:22:12.849Z,9.30
2018-07-11T04:24:40.398Z,10.90
2018-07-11T04:27:08.069Z,10.50
2018-07-11T04:29:35.701Z,11.40
2018-07-11T04:32:03.282Z,9.90
2018-07-11T04:34:30.925Z,11.70
2018-07-11T04:36:58.584Z,12.97
2018-07-11T04:39:26.276Z,10.13
2018-07-11T04:41:53.936Z,8.73
2018-07-11T04:44:21.620Z,9.60
2018-07-11T04:46:49.361Z,11.10
2018-07-11T04:49:16.947Z,10.07
2018-07-11T04:51:45.419Z,10.73
2018-07-11T04:54:13.097Z,12.00
2018-07-11T04:56:40.662Z,11.70
2018-07-11T04:59:08.220Z,12.13
2018-07-11T05:01:35.756Z,10.33
2018-07-11T05:04:03.286Z,11.50
2018-07-11T05:06:30.790Z,9.63
2018-07-11T05:08:58.321Z,12.50
2018-07-11T05:11:25.920Z,17.37
2018-07-11T05:13:53.476Z,15.50
2018-07-11T05:16:21.064Z,15.40
2018-07-11T05:18:48.622Z,16.90
2018-07-11T05:21:16.152Z,12.80
2018-07-11T05:23:43.708Z,11.30
2018-07-11T05:26:11.265Z,10.90
2018-07-11T05:28:38.888Z,13.87
2018-07-11T05:31:06.402Z,13.03
2018-07-11T05:33:33.982Z,14.00
2018-07-11T05:36:01.608Z,12.60
2018-07-11T05:38:29.139Z,13.60
2018-07-11T05:40:56.664Z,13.67
2018-07-11T05:43:24.285Z,13.90
2018-07-11T05:45:51.860Z,13.57
2018-07-11T05:48:20.231Z,12.30
2018-07-11T05:50:47.806Z,12.93
2018-07-11T05:53:15.360Z,13.70
2018-07-11T05:55:42.923Z,13.80
2018-07-11T05:58:10.516Z,13.00
2018-07-11T06:00:38.076Z,12.13
2018-07-11T06:03:05.602Z,14.00
2018-07-11T06:05:33.297Z,12.87
2018-07-11T06:08:00.749Z,12.43
2018-07-11T06:10:28.304Z,12.93
2018-07-11T06:12:55.838Z,12.40
2018-07-11T06:15:23.439Z,13.53
2018-07-11T06:17:51.020Z,13.50
2018-07-11T06:20:18.649Z,12.60
2018-07-11T06:22:46.183Z,13.30
2018-07-11T06:25:13.727Z,13.50
2018-07-11T06:27:41.357Z,14.10
2018-07-11T06:30:08.917Z,13.23
2018-07-11T06:32:36.445Z,11.20
2018-07-11T06:35:04.141Z,13.00
2018-07-11T06:37:31.691Z,10.57
2018-07-11T06:39:59.241Z,13.80
2018-07-11T06:42:26.843Z,13.70
2018-07-11T06:44:54.400Z,13.93
2018-07-11T06:47:23.705Z,15.00
2018-07-11T06:49:51.287Z,15.90
2018-07-11T06:52:18.838Z,12.70
2018-07-11T06:54:46.383Z,13.10
2018-07-11T06:57:13.962Z,13.97
2018-07-11T06:59:41.516Z,13.60
2018-07-11T07:02:09.064Z,13.50
2018-07-11T07:04:36.646Z,13.53
2018-07-11T07:07:04.204Z,12.90
2018-07-11T07:09:31.746Z,13.17
2018-07-11T07:11:59.332Z,13.37
2018-07-11T07:14:26.920Z,12.50
2018-07-11T07:16:54.501Z,14.27
2018-07-11T07:19:22.215Z,15.00
2018-07-11T07:21:49.978Z,14.93
2018-07-11T07:24:17.636Z,13.63
2018-07-11T07:26:45.174Z,16.03
2018-07-11T07:29:12.717Z,14.37
2018-07-11T07:31:40.278Z,14.50
2018-07-11T07:34:07.794Z,14.40
2018-07-11T07:36:35.344Z,14.60
2018-07-11T07:39:03.937Z,13.10
2018-07-11T07:41:31.468Z,13.50
2018-07-11T07:43:59.190Z,13.40
2018-07-11T07:46:26.892Z,14.43
2018-07-11T07:48:54.466Z,11.93
2018-07-11T07:51:22.135Z,13.40
2018-07-11T07:53:49.838Z,12.83
2018-07-11T07:56:17.482Z,13.40
2018-07-11T07:58:45.063Z,13.27
2018-07-11T08:01:12.656Z,12.57
2018-07-11T08:03:40.327Z,12.67
2018-07-11T08:06:07.900Z,11.50
2018-07-11T08:08:35.465Z,11.83
2018-07-11T08:11:03.044Z,12.93
2018-07-11T08:13:30.662Z,11.97
2018-07-11T08:15:58.233Z,12.30
2018-07-11T08:18:25.811Z,13.43
2018-07-11T08:20:53.438Z,12.93
2018-07-11T08:23:40.082Z,13.50
2018-07-11T08:26:18.981Z,15.17
2018-07-11T08:31:33.517Z,13.70
2018-07-11T08:34:12.775Z,13.57
2018-07-11T08:36:51.329Z,14.07
2018-07-11T08:39:29.903Z,13.50
2018-07-11T08:46:17.767Z,12.00
2018-07-11T08:51:00.011Z,13.10
2018-07-11T08:55:45.537Z,11.60
2018-07-11T08:58:55.114Z,12.03
2018-07-11T09:01:33.488Z,11.40
2018-07-11T09:06:12.401Z,11.67
2018-07-11T09:10:59.219Z,11.63
2018-07-11T09:13:55.851Z,10.60
2018-07-11T09:17:35.225Z,11.23
2018-07-11T09:20:16.190Z,11.40
2018-07-11T09:25:29.234Z,12.07
2018-07-11T09:27:56.832Z,11.43
2018-07-11T09:30:24.484Z,10.87
2018-07-11T09:32:52.153Z,11.80
2018-07-11T09:35:19.695Z,10.23
2018-07-11T09:37:47.268Z,9.07
2018-07-11T09:40:14.834Z,9.60
2018-07-11T09:42:42.463Z,9.70
2018-07-11T09:45:10.097Z,8.60
2018-07-11T09:47:37.774Z,8.27
2018-07-11T09:50:05.396Z,9.40
2018-07-11T09:52:32.964Z,8.73
2018-07-11T09:55:00.558Z,9.20
2018-07-11T09:57:28.323Z,8.53
2018-07-11T09:59:56.024Z,9.17
2018-07-11T10:02:23.696Z,9.97
2018-07-11T10:04:51.911Z,8.90
2018-07-11T10:07:19.543Z,8.10
2018-07-11T10:09:47.212Z,8.37
2018-07-11T10:12:14.874Z,7.50
2018-07-11T10:14:42.465Z,7.20
2018-07-11T10:17:10.032Z,7.03
2018-07-11T10:19:37.584Z,7.50
2018-07-11T10:22:05.184Z,8.40
2018-07-11T10:24:32.855Z,6.60
2018-07-11T10:27:00.417Z,7.00
2018-07-11T10:29:28.159Z,7.53
2018-07-11T10:31:55.776Z,6.73
2018-07-11T10:34:23.365Z,6.20
2018-07-11T10:36:51.027Z,6.80
2018-07-11T10:39:18.625Z,7.17
2018-07-11T10:41:46.247Z,7.23
2018-07-11T10:44:13.833Z,7.30
2018-07-11T10:46:41.393Z,6.57
2018-07-11T10:49:09.029Z,7.13
2018-07-11T10:51:36.643Z,7.40
2018-07-11T10:54:04.211Z,6.70
2018-07-11T10:56:31.902Z,7.70
2018-07-11T10:58:59.481Z,8.63
2018-07-11T11:01:27.111Z,7.80
2018-07-11T11:03:54.700Z,7.23
2018-07-11T11:06:22.311Z,9.07
2018-07-11T11:08:49.857Z,8.70
2018-07-11T11:11:17.473Z,9.20
2018-07-11T11:13:45.157Z,8.30
2018-07-11T11:16:12.701Z,8.13
2018-07-11T11:18:43.331Z,8.17
2018-07-11T11:21:11.075Z,7.10
2018-07-11T11:23:38.663Z,7.50
2018-07-11T11:26:06.268Z,6.97
2018-07-11T11:28:33.860Z,7.10
2018-07-11T11:31:01.440Z,7.23
2018-07-11T11:33:29.019Z,7.37
2018-07-11T11:35:56.577Z,7.60
2018-07-11T11:38:24.159Z,7.10
2018-07-11T11:40:51.757Z,8.33
2018-07-11T11:43:19.400Z,7.93
2018-07-11T11:45:47.039Z,6.53
2018-07-11T11:48:14.596Z,7.17
2018-07-11T11:50:42.203Z,8.33
2018-07-11T11:53:09.790Z,6.73
2018-07-11T11:55:37.371Z,6.43
2018-07-11T11:58:05.015Z,7.73
2018-07-11T12:00:32.597Z,7.83
2018-07-11T12:03:00.184Z,7.63
2018-07-11T12:05:27.796Z,8.37
2018-07-11T12:07:55.441Z,7.60
2018-07-11T12:10:23.109Z,8.37
2018-07-11T12:12:50.790Z,8.77
2018-07-11T12:15:18.386Z,8.77
2018-07-11T12:17:46.005Z,9.17
2018-07-11T12:20:13.561Z,7.27
2018-07-11T12:22:41.193Z,7.00
2018-07-11T12:25:08.756Z,7.70
2018-07-11T12:27:36.373Z,7.10
2018-07-11T12:30:04.109Z,7.73
2018-07-11T12:32:31.728Z,7.80
2018-07-11T12:34:59.364Z,6.60
2018-07-11T12:37:27.021Z,5.83
2018-07-11T12:39:54.617Z,6.00
2018-07-11T12:42:22.821Z,5.63
2018-07-11T12:44:50.449Z,4.50
2018-07-11T12:47:23.595Z,5.00
2018-07-11T12:49:51.261Z,4.57
2018-07-11T12:52:18.905Z,4.40
2018-07-11T12:54:46.520Z,4.10
2018-07-11T12:57:14.133Z,3.80
2018-07-11T12:59:41.947Z,4.07
2018-07-11T13:02:09.819Z,4.40
2018-07-11T13:04:37.493Z,4.17
2018-07-11T13:07:05.605Z,4.47
2018-07-11T13:09:33.255Z,4.60
2018-07-11T13:12:01.226Z,4.77
2018-07-11T13:14:28.822Z,6.03
2018-07-11T13:16:56.434Z,6.10
2018-07-11T13:19:24.053Z,7.20
2018-07-11T13:21:51.611Z,7.30
2018-07-11T13:24:19.546Z,6.47
2018-07-11T13:26:47.110Z,7.50
2018-07-11T13:29:14.681Z,7.27
2018-07-11T13:31:42.246Z,6.93
2018-07-11T13:34:09.866Z,7.30
2018-07-11T13:36:37.471Z,6.60
2018-07-11T13:39:10.457Z,5.63
2018-07-11T13:41:38.090Z,5.37
2018-07-11T13:44:05.711Z,5.90
2018-07-11T13:46:33.280Z,5.80
2018-07-11T13:49:00.859Z,6.63
2018-07-11T13:51:28.456Z,5.63
2018-07-11T13:53:56.178Z,5.87
2018-07-11T13:56:23.799Z,5.57
2018-07-11T13:58:51.507Z,4.93
2018-07-11T14:01:19.155Z,6.80
2018-07-11T14:03:46.820Z,5.00
2018-07-11T14:06:14.486Z,4.90
2018-07-11T14:08:42.174Z,4.83
2018-07-11T14:11:09.786Z,5.37
2018-07-11T14:13:37.399Z,4.57
2018-07-11T14:16:05.005Z,5.53
2018-07-11T14:18:32.622Z,4.63
2018-07-11T14:21:00.177Z,4.10
2018-07-11T14:23:38.388Z,4.30
2018-07-11T14:26:06.416Z,3.90
2018-07-11T14:28:34.174Z,4.33
2018-07-11T14:31:03.346Z,4.17
2018-07-11T14:33:31.831Z,3.67
2018-07-11T14:35:59.675Z,4.20
2018-07-11T14:38:27.978Z,4.40
2018-07-11T14:40:56.420Z,4.13
2018-07-11T14:43:24.708Z,3.70
2018-07-11T14:45:52.652Z,3.60
2018-07-11T14:48:20.350Z,3.80
2018-07-11T14:50:48.228Z,4.03
2018-07-11T14:53:15.871Z,3.30
2018-07-11T14:55:43.483Z,4.53
2018-07-11T14:58:11.218Z,3.40
2018-07-11T15:00:38.803Z,4.60
2018-07-11T15:03:06.392Z,4.23
2018-07-11T15:05:34.080Z,5.03
2018-07-11T15:08:01.673Z,4.27
2018-07-11T15:10:29.333Z,4.17
2018-07-11T15:12:56.907Z,3.63
2018-07-11T15:15:24.529Z,4.23
2018-07-11T15:17:52.197Z,3.93
2018-07-11T15:20:19.824Z,5.27
2018-07-11T15:22:47.751Z,4.27
2018-07-11T15:25:15.337Z,4.17
2018-07-11T15:27:43.054Z,4.60
2018-07-11T15:30:10.751Z,4.67
2018-07-11T15:32:38.446Z,3.80
2018-07-11T15:35:06.133Z,4.77
2018-07-11T15:37:33.835Z,4.37
2018-07-11T15:40:02.854Z,3.33
2018-07-11T15:42:30.553Z,4.00
2018-07-11T15:44:58.156Z,3.70
2018-07-11T15:47:27.728Z,3.77
2018-07-11T15:49:55.366Z,3.77
2018-07-11T15:52:24.651Z,3.60
2018-07-11T15:54:55.122Z,3.10
2018-07-11T15:57:37.189Z,4.03
2018-07-11T16:00:08.057Z,3.30
2018-07-11T16:02:40.981Z,4.00
2018-07-11T16:05:09.391Z,3.80
2018-07-11T16:07:39.764Z,3.23
2018-07-11T16:10:07.486Z,4.00
2018-07-11T16:12:35.149Z,3.70
2018-07-11T16:15:02.769Z,3.90
2018-07-11T16:17:30.392Z,3.37
2018-07-11T16:19:58.034Z,4.57
2018-07-11T16:22:25.691Z,4.03
2018-07-11T16:24:53.259Z,5.00
2018-07-11T16:27:21.238Z,4.97
2018-07-11T16:29:49.135Z,4.57
2018-07-11T16:32:16.832Z,4.50
2018-07-11T16:34:44.772Z,4.47
2018-07-11T16:37:12.396Z,4.70
2018-07-11T16:39:40.158Z,5.30
2018-07-11T16:42:07.766Z,6.30
2018-07-11T16:44:35.911Z,4.70
2018-07-11T16:47:05.121Z,6.20
2018-07-11T16:49:32.928Z,5.00
2018-07-11T16:52:01.807Z,5.60
2018-07-11T16:54:29.696Z,6.00
2018-07-11T16:56:58.401Z,6.57
2018-07-11T16:59:32.152Z,7.27
2018-07-11T17:02:00.102Z,6.50
2018-07-11T17:04:30.251Z,7.57
2018-07-11T17:06:57.958Z,6.73
2018-07-11T17:09:25.674Z,7.77
2018-07-11T17:11:53.428Z,7.60
2018-07-11T17:14:21.086Z,6.93
2018-07-11T17:16:58.909Z,7.23
2018-07-11T17:19:36.091Z,6.70
2018-07-11T17:22:03.920Z,7.20
2018-07-11T17:24:34.018Z,7.67
2018-07-11T17:27:01.736Z,7.50
2018-07-11T17:29:30.326Z,6.33
2018-07-11T17:32:06.842Z,6.20
2018-07-11T17:34:35.964Z,7.10
2018-07-11T17:37:04.933Z,7.33
2018-07-11T17:39:41.863Z,6.27
2018-07-11T17:42:10.824Z,8.50
2018-07-11T17:44:41.321Z,7.03
2018-07-11T17:47:08.985Z,7.23
2018-07-11T17:49:42.632Z,8.00
2018-07-11T17:52:11.544Z,7.87
2018-07-11T17:54:49.496Z,7.40
2018-07-11T17:57:25.559Z,7.97
2018-07-11T18:00:01.675Z,7.63
2018-07-11T18:02:32.069Z,8.23
2018-07-11T18:05:03.526Z,7.00
2018-07-11T18:07:43.198Z,6.70
2018-07-11T18:10:18.704Z,6.90
2018-07-11T18:12:54.491Z,7.40
2018-07-11T18:15:29.927Z,7.00
2018-07-11T18:20:10.794Z,6.40
2018-07-11T18:23:21.116Z,9.00
2018-07-11T18:26:01.689Z,6.80
2018-07-11T18:28:37.217Z,7.03
2018-07-11T18:31:14.948Z,7.20
2018-07-11T18:33:53.842Z,7.70
2018-07-11T18:37:06.041Z,5.97
2018-07-11T18:39:44.942Z,7.00
2018-07-11T18:42:20.428Z,6.43
2018-07-11T18:49:07.175Z,6.70
2018-07-11T18:51:43.092Z,7.17
2018-07-11T18:54:16.128Z,7.23
2018-07-11T18:56:58.394Z,7.60
2018-07-11T19:00:40.810Z,7.93
2018-07-11T19:03:19.645Z,8.00
2018-07-11T19:10:06.474Z,8.30
2018-07-11T19:12:48.061Z,7.53
2018-07-11T19:15:21.335Z,6.97
2018-07-11T19:18:01.117Z,8.83
2018-07-11T19:20:35.311Z,7.80
2018-07-11T19:24:20.596Z,8.23
2018-07-11T19:27:20.195Z,8.17
2018-07-11T19:29:56.993Z,8.30
2018-07-11T19:32:35.827Z,8.00
2018-07-11T19:35:18.253Z,7.90
2018-07-11T19:37:54.040Z,8.73
2018-07-11T19:40:31.557Z,7.73
2018-07-11T19:45:09.983Z,7.60
2018-07-11T19:47:56.077Z,7.57
2018-07-11T19:50:34.249Z,7.17
2018-07-11T19:53:09.647Z,7.43
2018-07-11T19:55:44.258Z,6.63
2018-07-11T19:58:12.064Z,6.47
2018-07-11T20:00:39.985Z,8.00
2018-07-11T20:03:07.757Z,7.70
2018-07-11T20:05:37.522Z,7.03
2018-07-11T20:08:05.214Z,8.07
2018-07-11T20:10:32.749Z,7.20
2018-07-11T20:13:01.765Z,8.23
2018-07-11T20:15:29.502Z,8.13
2018-07-11T20:17:57.262Z,8.10
2018-07-11T20:20:25.489Z,8.73
2018-07-11T20:22:53.456Z,9.40
2018-07-11T20:25:20.993Z,10.00
2018-07-11T20:27:48.899Z,9.80
2018-07-11T20:30:16.487Z,9.27
2018-07-11T20:32:44.116Z,8.87
2018-07-11T20:35:11.739Z,10.13
2018-07-11T20:37:39.449Z,10.10
2018-07-11T20:40:07.174Z,9.87
2018-07-11T20:42:35.177Z,9.90
2018-07-11T20:45:02.835Z,10.03
2018-07-11T20:47:30.466Z,10.73
2018-07-11T20:49:58.126Z,8.90
2018-07-11T20:52:25.692Z,8.93
2018-07-11T20:54:53.294Z,9.63
2018-07-11T20:57:20.916Z,8.73
2018-07-11T20:59:59.770Z,10.83
2018-07-11T21:02:38.724Z,9.90
2018-07-11T21:05:31.725Z,10.30
2018-07-11T21:10:11.336Z,9.53
2018-07-11T21:12:46.727Z,8.80
2018-07-11T21:15:27.682Z,11.00
2018-07-11T21:18:06.731Z,9.90
2018-07-11T21:20:34.325Z,9.60
2018-07-11T21:23:01.967Z,10.20
2018-07-11T21:25:29.514Z,10.60
2018-07-11T21:27:57.083Z,10.20
2018-07-11T21:30:24.709Z,10.67
2018-07-11T21:32:52.316Z,11.90
2018-07-11T21:35:19.889Z,11.03
2018-07-11T21:37:47.493Z,11.60
2018-07-11T21:40:15.122Z,12.00
2018-07-11T21:42:42.767Z,12.23
2018-07-11T21:45:10.348Z,13.87
2018-07-11T21:47:37.889Z,12.63
2018-07-11T21:50:05.476Z,11.50
2018-07-11T21:52:33.023Z,11.50
2018-07-11T21:55:00.608Z,11.70
2018-07-11T21:57:28.248Z,10.87
2018-07-11T21:59:55.877Z,11.07
2018-07-11T22:02:23.471Z,12.60
2018-07-11T22:04:51.693Z,11.20
2018-07-11T22:07:19.239Z,11.20
2018-07-11T22:09:46.757Z,11.50
2018-07-11T22:12:14.314Z,11.30
2018-07-11T22:14:41.899Z,11.30
2018-07-11T22:17:20.657Z,12.40
2018-07-11T22:19:47.139Z,10.90
2018-07-11T22:22:13.615Z,11.90
2018-07-11T22:24:40.079Z,10.80
2018-07-11T22:27:06.565Z,11.27
2018-07-11T22:29:33.047Z,10.70
2018-07-11T22:31:59.547Z,10.90
2018-07-11T22:34:26.101Z,11.57
2018-07-11T22:36:52.618Z,12.13
2018-07-11T22:39:19.063Z,12.33
2018-07-11T22:41:45.556Z,12.80
2018-07-11T22:44:12.104Z,12.80
2018-07-11T22:46:38.623Z,12.83
2018-07-11T22:49:05.122Z,12.40
2018-07-11T22:51:31.606Z,13.40
2018-07-11T22:53:58.075Z,13.20
2018-07-11T22:56:24.624Z,11.60
2018-07-11T22:58:51.122Z,11.50
2018-07-11T23:01:17.620Z,13.03
2018-07-11T23:03:44.108Z,11.60
2018-07-11T23:06:10.614Z,12.77
2018-07-11T23:08:37.108Z,12.40
2018-07-11T23:11:03.576Z,12.53
2018-07-11T23:13:30.033Z,13.50
2018-07-11T23:15:56.613Z,12.40
2018-07-11T23:18:23.077Z,13.53
2018-07-11T23:20:49.554Z,11.70
2018-07-11T23:23:17.650Z,11.37
2018-07-11T23:25:44.146Z,12.93
2018-07-11T23:28:10.661Z,12.20
2018-07-11T23:30:37.134Z,12.40
2018-07-11T23:33:03.580Z,12.27
2018-07-11T23:35:30.056Z,12.10
2018-07-11T23:37:56.548Z,14.50
2018-07-11T23:40:23.054Z,11.40
2018-07-11T23:42:49.533Z,12.80
2018-07-11T23:45:16.008Z,14.13
2018-07-11T23:47:42.522Z,14.73
2018-07-11T23:50:09.002Z,13.77
2018-07-11T23:52:35.499Z,13.80
2018-07-11T23:55:01.962Z,14.37
2018-07-11T23:57:29.233Z,13.67
2018-07-11T23:59:55.731Z,12.17
